sensor_id;sensor_type;location;lat;lon;timestamp;pressure;altitude;pressure_sealevel;temperature;humidity
25855;BME280;13680;49.936;11.344;2022-09-09T00:02:20;96418.16;;;13.08;73.68
25855;BME280;13680;49.936;11.344;2022-09-09T00:04:59;96427.66;;;13.14;73.32
25855;BME280;13680;49.936;11.344;2022-09-09T00:07:41;96420.84;;;13.08;73.64
25855;BME280;13680;49.936;11.344;2022-09-09T00:10:37;96418.19;;;12.99;73.60
25855;BME280;13680;49.936;11.344;2022-09-09T00:13:18;96413.25;;;13.01;73.61
25855;BME280;13680;49.936;11.344;2022-09-09T00:15:55;96418.19;;;12.99;73.35
25855;BME280;13680;49.936;11.344;2022-09-09T00:21:06;96410.72;;;12.96;73.30
25855;BME280;13680;49.936;11.344;2022-09-09T00:23:34;96415.50;;;12.90;74.05
25855;BME280;13680;49.936;11.344;2022-09-09T00:31:33;96417.13;;;12.83;74.09
25855;BME280;13680;49.936;11.344;2022-09-09T00:34:03;96419.47;;;12.84;74.39
25855;BME280;13680;49.936;11.344;2022-09-09T00:36:34;96419.47;;;12.84;73.88
25855;BME280;13680;49.936;11.344;2022-09-09T00:39:01;96418.88;;;12.79;73.63
25855;BME280;13680;49.936;11.344;2022-09-09T00:41:43;96411.59;;;12.70;73.55
25855;BME280;13680;49.936;11.344;2022-09-09T00:44:29;96423.78;;;12.76;74.00
25855;BME280;13680;49.936;11.344;2022-09-09T00:50:34;96415.88;;;12.71;73.24
25855;BME280;13680;49.936;11.344;2022-09-09T00:53:24;96419.22;;;12.77;73.39
25855;BME280;13680;49.936;11.344;2022-09-09T00:56:13;96409.69;;;12.71;73.29
25855;BME280;13680;49.936;11.344;2022-09-09T00:58:55;96415.28;;;12.66;73.67
25855;BME280;13680;49.936;11.344;2022-09-09T01:01:25;96416.66;;;12.72;73.76
25855;BME280;13680;49.936;11.344;2022-09-09T01:03:55;96416.03;;;12.75;74.09
25855;BME280;13680;49.936;11.344;2022-09-09T01:06:32;96418.56;;;12.71;74.00
25855;BME280;13680;49.936;11.344;2022-09-09T01:09:11;96415.09;;;12.71;74.96
25855;BME280;13680;49.936;11.344;2022-09-09T01:12:32;96418.25;;;12.73;74.37
25855;BME280;13680;49.936;11.344;2022-09-09T01:15:04;96415.06;;;12.80;74.72
25855;BME280;13680;49.936;11.344;2022-09-09T01:17:48;96411.06;;;12.86;74.72
25855;BME280;13680;49.936;11.344;2022-09-09T01:20:20;96415.19;;;12.83;74.52
25855;BME280;13680;49.936;11.344;2022-09-09T01:28:11;96403.81;;;12.77;75.07
25855;BME280;13680;49.936;11.344;2022-09-09T01:30:40;96410.13;;;12.82;75.01
25855;BME280;13680;49.936;11.344;2022-09-09T01:33:10;96406.00;;;12.84;75.12
25855;BME280;13680;49.936;11.344;2022-09-09T01:38:16;96411.38;;;12.84;75.41
25855;BME280;13680;49.936;11.344;2022-09-09T01:40:43;96405.38;;;12.79;75.29
25855;BME280;13680;49.936;11.344;2022-09-09T01:43:09;96403.66;;;12.74;75.17
25855;BME280;13680;49.936;11.344;2022-09-09T01:45:34;96403.03;;;12.77;75.10
25855;BME280;13680;49.936;11.344;2022-09-09T01:48:00;96412.50;;;12.83;74.71
25855;BME280;13680;49.936;11.344;2022-09-09T01:50:27;96408.88;;;12.79;74.93
25855;BME280;13680;49.936;11.344;2022-09-09T01:52:56;96410.59;;;12.84;75.57
25855;BME280;13680;49.936;11.344;2022-09-09T01:55:30;96406.31;;;12.83;75.46
25855;BME280;13680;49.936;11.344;2022-09-09T01:58:22;96402.69;;;12.79;75.26
25855;BME280;13680;49.936;11.344;2022-09-09T02:01:29;96408.72;;;12.75;75.26
25855;BME280;13680;49.936;11.344;2022-09-09T02:03:57;96414.75;;;12.81;75.30
25855;BME280;13680;49.936;11.344;2022-09-09T02:06:47;96412.38;;;12.80;75.78
25855;BME280;13680;49.936;11.344;2022-09-09T02:09:15;96406.16;;;12.79;75.17
25855;BME280;13680;49.936;11.344;2022-09-09T02:11:44;96414.41;;;12.83;75.13
25855;BME280;13680;49.936;11.344;2022-09-09T02:14:16;96407.44;;;12.82;74.64
25855;BME280;13680;49.936;11.344;2022-09-09T02:17:13;96414.25;;;12.79;74.63
25855;BME280;13680;49.936;11.344;2022-09-09T02:19:46;96410.31;;;12.76;74.89
25855;BME280;13680;49.936;11.344;2022-09-09T02:22:16;96405.88;;;12.72;75.15
25855;BME280;13680;49.936;11.344;2022-09-09T02:24:42;96407.44;;;12.73;75.13
25855;BME280;13680;49.936;11.344;2022-09-09T02:27:10;96397.78;;;12.72;75.57
25855;BME280;13680;49.936;11.344;2022-09-09T02:29:41;96386.88;;;12.59;75.35
25855;BME280;13680;49.936;11.344;2022-09-09T02:32:15;96392.44;;;12.63;76.14
25855;BME280;13680;49.936;11.344;2022-09-09T02:34:45;96390.66;;;12.67;75.99
25855;BME280;13680;49.936;11.344;2022-09-09T02:37:15;96391.44;;;12.68;75.81
25855;BME280;13680;49.936;11.344;2022-09-09T02:39:42;96392.69;;;12.70;76.15
25855;BME280;13680;49.936;11.344;2022-09-09T02:42:08;96388.13;;;12.71;75.57
25855;BME280;13680;49.936;11.344;2022-09-09T02:44:34;96398.25;;;12.74;75.43
25855;BME280;13680;49.936;11.344;2022-09-09T02:47:14;96394.78;;;12.65;75.74
25855;BME280;13680;49.936;11.344;2022-09-09T02:49:59;96394.13;;;12.68;75.46
25855;BME280;13680;49.936;11.344;2022-09-09T02:52:52;96391.78;;;12.66;75.41
25855;BME280;13680;49.936;11.344;2022-09-09T02:58:00;96394.28;;;12.71;75.49
25855;BME280;13680;49.936;11.344;2022-09-09T03:00:27;96410.22;;;12.55;76.17
25855;BME280;13680;49.936;11.344;2022-09-09T03:02:54;96398.59;;;12.64;75.88
25855;BME280;13680;49.936;11.344;2022-09-09T03:05:20;96401.44;;;12.67;75.46
25855;BME280;13680;49.936;11.344;2022-09-09T03:07:45;96399.69;;;12.71;75.46
25855;BME280;13680;49.936;11.344;2022-09-09T03:10:11;96402.56;;;12.66;75.50
25855;BME280;13680;49.936;11.344;2022-09-09T03:12:36;96390.03;;;12.61;76.49
25855;BME280;13680;49.936;11.344;2022-09-09T03:15:02;96394.31;;;12.63;76.58
25855;BME280;13680;49.936;11.344;2022-09-09T03:17:27;96386.03;;;12.68;77.00
25855;BME280;13680;49.936;11.344;2022-09-09T03:19:53;96398.25;;;12.74;76.96
25855;BME280;13680;49.936;11.344;2022-09-09T03:22:20;96396.66;;;12.73;76.74
25855;BME280;13680;49.936;11.344;2022-09-09T03:24:46;96390.16;;;12.74;77.00
25855;BME280;13680;49.936;11.344;2022-09-09T03:27:12;96385.06;;;12.81;77.16
25855;BME280;13680;49.936;11.344;2022-09-09T03:29:39;96400.75;;;12.88;76.29
25855;BME280;13680;49.936;11.344;2022-09-09T03:32:05;96395.03;;;12.89;76.74
25855;BME280;13680;49.936;11.344;2022-09-09T03:34:30;96392.47;;;12.93;76.30
25855;BME280;13680;49.936;11.344;2022-09-09T03:36:56;96386.41;;;12.96;77.08
25855;BME280;13680;49.936;11.344;2022-09-09T03:39:21;96395.31;;;12.97;76.56
25855;BME280;13680;49.936;11.344;2022-09-09T03:41:47;96389.91;;;13.05;76.27
25855;BME280;13680;49.936;11.344;2022-09-09T03:44:13;96398.78;;;13.06;77.71
25855;BME280;13680;49.936;11.344;2022-09-09T03:46:39;96390.50;;;13.11;76.56
25855;BME280;13680;49.936;11.344;2022-09-09T03:49:04;96385.56;;;13.13;76.44
25855;BME280;13680;49.936;11.344;2022-09-09T03:51:29;96382.22;;;13.16;76.88
25855;BME280;13680;49.936;11.344;2022-09-09T03:53:55;96382.84;;;13.22;76.45
25855;BME280;13680;49.936;11.344;2022-09-09T03:56:23;96383.16;;;13.20;76.99
25855;BME280;13680;49.936;11.344;2022-09-09T03:58:48;96381.09;;;13.17;76.45
25855;BME280;13680;49.936;11.344;2022-09-09T04:01:14;96378.22;;;13.22;76.74
25855;BME280;13680;49.936;11.344;2022-09-09T04:03:40;96374.59;;;13.18;77.09
25855;BME280;13680;49.936;11.344;2022-09-09T04:06:06;96366.63;;;13.22;76.56
25855;BME280;13680;49.936;11.344;2022-09-09T04:08:33;96371.25;;;13.13;77.49
25855;BME280;13680;49.936;11.344;2022-09-09T04:10:59;96373.78;;;13.18;76.87
25855;BME280;13680;49.936;11.344;2022-09-09T04:13:26;96375.38;;;13.19;76.68
25855;BME280;13680;49.936;11.344;2022-09-09T04:15:54;96379.38;;;13.13;76.80
25855;BME280;13680;49.936;11.344;2022-09-09T04:18:20;96374.28;;;13.11;76.98
25855;BME280;13680;49.936;11.344;2022-09-09T04:20:50;96372.06;;;13.13;77.19
25855;BME280;13680;49.936;11.344;2022-09-09T04:23:16;96380.63;;;13.15;77.15
25855;BME280;13680;49.936;11.344;2022-09-09T04:25:54;96372.03;;;13.22;77.21
25855;BME280;13680;49.936;11.344;2022-09-09T04:28:22;96372.63;;;13.27;76.17
25855;BME280;13680;49.936;11.344;2022-09-09T04:30:48;96373.44;;;13.28;76.01
25855;BME280;13680;49.936;11.344;2022-09-09T04:33:14;96375.06;;;13.20;77.11
25855;BME280;13680;49.936;11.344;2022-09-09T04:35:45;96378.34;;;13.26;76.82
25855;BME280;13680;49.936;11.344;2022-09-09T04:38:12;96383.91;;;13.30;77.06
25855;BME280;13680;49.936;11.344;2022-09-09T04:40:37;96391.19;;;13.29;77.36
25855;BME280;13680;49.936;11.344;2022-09-09T04:43:08;96393.72;;;13.34;77.21
25855;BME280;13680;49.936;11.344;2022-09-09T04:45:34;96378.78;;;13.37;77.07
25855;BME280;13680;49.936;11.344;2022-09-09T04:48:00;96387.84;;;13.41;76.81
25855;BME280;13680;49.936;11.344;2022-09-09T04:50:25;96388.78;;;13.45;77.15
25855;BME280;13680;49.936;11.344;2022-09-09T04:52:51;96386.69;;;13.42;77.89
25855;BME280;13680;49.936;11.344;2022-09-09T04:55:16;96382.59;;;13.45;77.94
25855;BME280;13680;49.936;11.344;2022-09-09T04:57:41;96384.28;;;13.49;77.35
25855;BME280;13680;49.936;11.344;2022-09-09T05:00:07;96392.19;;;13.54;77.92
25855;BME280;13680;49.936;11.344;2022-09-09T05:02:37;96386.16;;;13.57;78.05
25855;BME280;13680;49.936;11.344;2022-09-09T05:05:03;96390.13;;;13.60;77.93
25855;BME280;13680;49.936;11.344;2022-09-09T05:07:28;96388.97;;;13.61;77.97
25855;BME280;13680;49.936;11.344;2022-09-09T05:09:54;96384.97;;;13.67;77.77
25855;BME280;13680;49.936;11.344;2022-09-09T05:12:19;96381.16;;;13.68;77.74
25855;BME280;13680;49.936;11.344;2022-09-09T05:14:44;96389.66;;;13.79;77.79
25855;BME280;13680;49.936;11.344;2022-09-09T05:17:10;96392.56;;;13.74;77.62
25855;BME280;13680;49.936;11.344;2022-09-09T05:19:36;96386.28;;;13.82;77.41
25855;BME280;13680;49.936;11.344;2022-09-09T05:22:02;96389.47;;;13.84;77.86
25855;BME280;13680;49.936;11.344;2022-09-09T05:24:28;96391.38;;;13.84;77.51
25855;BME280;13680;49.936;11.344;2022-09-09T05:26:53;96400.53;;;13.91;77.43
25855;BME280;13680;49.936;11.344;2022-09-09T05:29:18;96397.03;;;13.91;77.48
25855;BME280;13680;49.936;11.344;2022-09-09T05:31:47;96406.19;;;13.99;77.65
25855;BME280;13680;49.936;11.344;2022-09-09T05:34:13;96403.78;;;14.06;77.90
25855;BME280;13680;49.936;11.344;2022-09-09T05:36:38;96408.16;;;14.11;77.69
25855;BME280;13680;49.936;11.344;2022-09-09T05:39:03;96406.84;;;14.17;77.24
25855;BME280;13680;49.936;11.344;2022-09-09T05:41:29;96407.19;;;14.15;77.43
25855;BME280;13680;49.936;11.344;2022-09-09T05:43:54;96409.69;;;14.20;77.53
25855;BME280;13680;49.936;11.344;2022-09-09T05:46:22;96409.97;;;14.28;77.38
25855;BME280;13680;49.936;11.344;2022-09-09T05:48:49;96414.47;;;14.36;77.04
25855;BME280;13680;49.936;11.344;2022-09-09T05:51:23;96417.44;;;14.43;77.17
25855;BME280;13680;49.936;11.344;2022-09-09T05:53:50;96415.31;;;14.49;77.38
25855;BME280;13680;49.936;11.344;2022-09-09T05:56:25;96415.38;;;14.61;77.67
25855;BME280;13680;49.936;11.344;2022-09-09T05:58:51;96415.88;;;14.76;77.17
25855;BME280;13680;49.936;11.344;2022-09-09T06:01:23;96422.44;;;14.87;76.54
25855;BME280;13680;49.936;11.344;2022-09-09T06:03:50;96424.28;;;14.95;76.71
25855;BME280;13680;49.936;11.344;2022-09-09T06:06:21;96415.13;;;15.00;76.73
25855;BME280;13680;49.936;11.344;2022-09-09T06:08:48;96421.94;;;15.18;76.75
25855;BME280;13680;49.936;11.344;2022-09-09T06:11:24;96416.28;;;15.36;75.88
25855;BME280;13680;49.936;11.344;2022-09-09T06:13:50;96409.97;;;15.57;75.94
25855;BME280;13680;49.936;11.344;2022-09-09T06:16:19;96409.25;;;15.72;76.21
25855;BME280;13680;49.936;11.344;2022-09-09T06:18:45;96410.38;;;15.96;75.79
25855;BME280;13680;49.936;11.344;2022-09-09T06:23:42;96413.75;;;16.62;73.41
25855;BME280;13680;49.936;11.344;2022-09-09T06:26:11;96417.06;;;16.99;72.75
25855;BME280;13680;49.936;11.344;2022-09-09T06:28:37;96417.00;;;17.28;71.72
25855;BME280;13680;49.936;11.344;2022-09-09T06:31:12;96412.19;;;17.21;70.32
25855;BME280;13680;49.936;11.344;2022-09-09T06:33:40;96415.50;;;17.30;70.34
25855;BME280;13680;49.936;11.344;2022-09-09T06:36:30;96414.00;;;17.33;70.02
25855;BME280;13680;49.936;11.344;2022-09-09T06:38:56;96419.44;;;17.33;70.07
25855;BME280;13680;49.936;11.344;2022-09-09T06:41:24;96406.63;;;17.33;70.03
25855;BME280;13680;49.936;11.344;2022-09-09T06:43:51;96407.25;;;17.27;70.68
25855;BME280;13680;49.936;11.344;2022-09-09T06:46:18;96415.41;;;17.27;70.53
25855;BME280;13680;49.936;11.344;2022-09-09T06:48:44;96414.78;;;17.33;70.22
25855;BME280;13680;49.936;11.344;2022-09-09T06:51:11;96410.16;;;17.34;70.02
25855;BME280;13680;49.936;11.344;2022-09-09T06:53:38;96418.72;;;17.36;69.58
25855;BME280;13680;49.936;11.344;2022-09-09T06:58:40;96415.91;;;17.48;69.18
25855;BME280;13680;49.936;11.344;2022-09-09T07:01:11;96420.88;;;17.62;68.94
25855;BME280;13680;49.936;11.344;2022-09-09T07:03:37;96415.53;;;17.66;68.86
25855;BME280;13680;49.936;11.344;2022-09-09T07:06:04;96427.78;;;17.76;68.81
25855;BME280;13680;49.936;11.344;2022-09-09T07:08:29;96435.66;;;17.97;67.62
25855;BME280;13680;49.936;11.344;2022-09-09T07:11:05;96424.94;;;18.24;67.35
25855;BME280;13680;49.936;11.344;2022-09-09T07:13:32;96423.44;;;18.46;66.65
25855;BME280;13680;49.936;11.344;2022-09-09T07:16:23;96428.53;;;18.47;66.27
25855;BME280;13680;49.936;11.344;2022-09-09T07:18:50;96426.22;;;18.69;65.60
25855;BME280;13680;49.936;11.344;2022-09-09T07:21:17;96425.75;;;18.87;65.33
25855;BME280;13680;49.936;11.344;2022-09-09T07:23:43;96429.56;;;19.02;64.45
25855;BME280;13680;49.936;11.344;2022-09-09T07:26:17;96434.34;;;19.08;63.71
25855;BME280;13680;49.936;11.344;2022-09-09T07:28:44;96437.50;;;19.10;63.62
25855;BME280;13680;49.936;11.344;2022-09-09T07:31:15;96441.38;;;19.09;64.02
25855;BME280;13680;49.936;11.344;2022-09-09T07:33:41;96438.78;;;19.17;63.43
25855;BME280;13680;49.936;11.344;2022-09-09T07:36:14;96451.66;;;19.43;61.79
25855;BME280;13680;49.936;11.344;2022-09-09T07:38:40;96445.53;;;19.50;61.43
25855;BME280;13680;49.936;11.344;2022-09-09T07:41:07;96451.78;;;19.50;62.22
25855;BME280;13680;49.936;11.344;2022-09-09T07:43:38;96451.38;;;19.48;62.03
25855;BME280;13680;49.936;11.344;2022-09-09T07:46:03;96453.16;;;19.63;60.27
25855;BME280;13680;49.936;11.344;2022-09-09T07:48:29;96447.53;;;19.79;61.74
25855;BME280;13680;49.936;11.344;2022-09-09T07:53:31;96434.91;;;20.55;60.37
25855;BME280;13680;49.936;11.344;2022-09-09T07:56:05;96444.75;;;20.64;58.97
25855;BME280;13680;49.936;11.344;2022-09-09T07:58:30;96449.06;;;20.99;58.54
25855;BME280;13680;49.936;11.344;2022-09-09T08:00:55;96446.69;;;20.97;57.74
25855;BME280;13680;49.936;11.344;2022-09-09T08:03:22;96451.38;;;21.41;55.16
25855;BME280;13680;49.936;11.344;2022-09-09T08:05:48;96452.09;;;21.80;55.57
25855;BME280;13680;49.936;11.344;2022-09-09T08:08:14;96454.53;;;21.92;54.28
25855;BME280;13680;49.936;11.344;2022-09-09T08:10:41;96452.75;;;22.25;52.44
25855;BME280;13680;49.936;11.344;2022-09-09T08:13:08;96448.63;;;22.60;51.95
25855;BME280;13680;49.936;11.344;2022-09-09T08:15:34;96449.31;;;22.43;50.79
25855;BME280;13680;49.936;11.344;2022-09-09T08:18:00;96447.75;;;22.38;50.62
25855;BME280;13680;49.936;11.344;2022-09-09T08:20:25;96450.19;;;22.58;49.42
25855;BME280;13680;49.936;11.344;2022-09-09T08:22:51;96452.84;;;22.39;48.86
25855;BME280;13680;49.936;11.344;2022-09-09T08:25:16;96450.59;;;22.70;48.53
25855;BME280;13680;49.936;11.344;2022-09-09T08:27:41;96452.53;;;22.63;49.83
25855;BME280;13680;49.936;11.344;2022-09-09T08:30:07;96454.13;;;22.67;49.40
25855;BME280;13680;49.936;11.344;2022-09-09T08:32:33;96454.94;;;22.75;48.25
25855;BME280;13680;49.936;11.344;2022-09-09T08:35:00;96447.78;;;22.49;49.28
25855;BME280;13680;49.936;11.344;2022-09-09T08:37:25;96464.41;;;22.11;49.72
25855;BME280;13680;49.936;11.344;2022-09-09T08:39:50;96460.97;;;22.25;49.09
25855;BME280;13680;49.936;11.344;2022-09-09T08:42:38;96459.34;;;22.10;49.38
25855;BME280;13680;49.936;11.344;2022-09-09T08:45:20;96467.59;;;22.20;49.79
25855;BME280;13680;49.936;11.344;2022-09-09T08:50:43;96465.34;;;22.37;49.21
25855;BME280;13680;49.936;11.344;2022-09-09T08:53:19;96462.69;;;22.51;48.67
25855;BME280;13680;49.936;11.344;2022-09-09T08:55:48;96465.00;;;22.46;48.43
25855;BME280;13680;49.936;11.344;2022-09-09T08:58:17;96465.94;;;22.82;48.87
25855;BME280;13680;49.936;11.344;2022-09-09T09:09:57;96456.06;;;22.60;48.17
25855;BME280;13680;49.936;11.344;2022-09-09T09:12:29;96471.94;;;22.32;47.89
25855;BME280;13680;49.936;11.344;2022-09-09T09:14:58;96461.88;;;22.47;47.69
25855;BME280;13680;49.936;11.344;2022-09-09T09:17:26;96463.94;;;22.76;48.06
25855;BME280;13680;49.936;11.344;2022-09-09T09:19:53;96475.72;;;22.02;48.74
25855;BME280;13680;49.936;11.344;2022-09-09T09:22:21;96464.63;;;22.51;47.95
25855;BME280;13680;49.936;11.344;2022-09-09T09:30:20;96451.88;;;23.05;46.58
25855;BME280;13680;49.936;11.344;2022-09-09T09:33:08;96449.22;;;23.49;45.81
25855;BME280;13680;49.936;11.344;2022-09-09T09:35:39;96448.69;;;24.26;43.26
25855;BME280;13680;49.936;11.344;2022-09-09T09:40:58;96448.34;;;24.21;43.07
25855;BME280;13680;49.936;11.344;2022-09-09T09:43:28;96440.84;;;24.35;42.82
25855;BME280;13680;49.936;11.344;2022-09-09T09:45:53;96435.19;;;24.79;43.80
25855;BME280;13680;49.936;11.344;2022-09-09T09:48:19;96439.69;;;24.26;43.14
25855;BME280;13680;49.936;11.344;2022-09-09T09:53:22;96436.78;;;24.73;42.83
25855;BME280;13680;49.936;11.344;2022-09-09T09:55:58;96440.09;;;24.21;43.19
25855;BME280;13680;49.936;11.344;2022-09-09T09:58:26;96423.31;;;24.89;42.37
25855;BME280;13680;49.936;11.344;2022-09-09T10:00:53;96427.50;;;24.30;42.47
25855;BME280;13680;49.936;11.344;2022-09-09T10:03:23;96425.94;;;24.29;43.46
25855;BME280;13680;49.936;11.344;2022-09-09T10:05:48;96430.19;;;24.45;43.13
25855;BME280;13680;49.936;11.344;2022-09-09T10:08:15;96434.81;;;24.70;42.44
25855;BME280;13680;49.936;11.344;2022-09-09T10:11:19;96420.72;;;24.64;43.09
25855;BME280;13680;49.936;11.344;2022-09-09T10:17:08;96419.50;;;24.68;42.01
25855;BME280;13680;49.936;11.344;2022-09-09T10:19:43;96418.69;;;24.75;42.15
25855;BME280;13680;49.936;11.344;2022-09-09T10:22:30;96420.78;;;24.39;43.96
25855;BME280;13680;49.936;11.344;2022-09-09T10:30:21;96413.31;;;24.39;42.30
25855;BME280;13680;49.936;11.344;2022-09-09T10:35:34;96417.31;;;24.20;42.68
25855;BME280;13680;49.936;11.344;2022-09-09T10:38:26;96412.28;;;24.04;43.24
25855;BME280;13680;49.936;11.344;2022-09-09T10:46:26;96392.47;;;26.03;40.02
25855;BME280;13680;49.936;11.344;2022-09-09T11:00:04;96388.56;;;26.39;39.36
25855;BME280;13680;49.936;11.344;2022-09-09T11:02:33;96384.44;;;27.33;38.04
25855;BME280;13680;49.936;11.344;2022-09-09T11:05:03;96378.56;;;27.78;37.81
25855;BME280;13680;49.936;11.344;2022-09-09T11:07:42;96378.16;;;27.80;36.25
25855;BME280;13680;49.936;11.344;2022-09-09T11:10:23;96372.75;;;28.36;35.13
25855;BME280;13680;49.936;11.344;2022-09-09T11:12:51;96365.88;;;28.61;34.62
25855;BME280;13680;49.936;11.344;2022-09-09T11:15:43;96361.81;;;28.49;35.13
25855;BME280;13680;49.936;11.344;2022-09-09T11:18:15;96368.69;;;28.41;34.39
25855;BME280;13680;49.936;11.344;2022-09-09T11:20:44;96371.34;;;29.01;33.83
25855;BME280;13680;49.936;11.344;2022-09-09T11:23:20;96365.03;;;28.07;34.65
25855;BME280;13680;49.936;11.344;2022-09-09T11:25:56;96378.06;;;26.88;35.85
25855;BME280;13680;49.936;11.344;2022-09-09T11:28:56;96370.38;;;26.45;37.23
25855;BME280;13680;49.936;11.344;2022-09-09T11:39:44;96378.31;;;26.01;37.88
25855;BME280;13680;49.936;11.344;2022-09-09T11:42:19;96361.25;;;27.54;36.39
25855;BME280;13680;49.936;11.344;2022-09-09T11:44:45;96371.75;;;27.63;35.53
25855;BME280;13680;49.936;11.344;2022-09-09T11:47:22;96368.03;;;27.73;34.86
25855;BME280;13680;49.936;11.344;2022-09-09T11:49:51;96363.03;;;27.64;35.06
25855;BME280;13680;49.936;11.344;2022-09-09T11:52:22;96363.31;;;26.99;36.40
25855;BME280;13680;49.936;11.344;2022-09-09T11:54:49;96365.28;;;26.43;37.09
25855;BME280;13680;49.936;11.344;2022-09-09T11:57:32;96375.19;;;26.03;37.60
25855;BME280;13680;49.936;11.344;2022-09-09T11:59:59;96368.91;;;25.60;38.68
25855;BME280;13680;49.936;11.344;2022-09-09T12:02:27;96370.88;;;26.02;38.21
25855;BME280;13680;49.936;11.344;2022-09-09T12:07:51;96361.22;;;26.21;36.59
25855;BME280;13680;49.936;11.344;2022-09-09T12:10:33;96350.41;;;27.43;36.26
25855;BME280;13680;49.936;11.344;2022-09-09T12:13:18;96349.41;;;27.97;34.26
25855;BME280;13680;49.936;11.344;2022-09-09T12:15:48;96346.09;;;28.06;33.35
25855;BME280;13680;49.936;11.344;2022-09-09T12:18:21;96334.63;;;28.81;32.61
25855;BME280;13680;49.936;11.344;2022-09-09T12:21:06;96326.25;;;29.17;31.29
25855;BME280;13680;49.936;11.344;2022-09-09T12:23:55;96316.72;;;30.10;30.26
25855;BME280;13680;49.936;11.344;2022-09-09T12:26:32;96317.75;;;30.42;28.48
25855;BME280;13680;49.936;11.344;2022-09-09T12:31:56;96323.44;;;29.67;28.88
25855;BME280;13680;49.936;11.344;2022-09-09T12:34:39;96320.84;;;29.89;28.85
25855;BME280;13680;49.936;11.344;2022-09-09T12:40:19;96315.66;;;28.63;29.74
25855;BME280;13680;49.936;11.344;2022-09-09T12:42:45;96314.91;;;28.05;31.70
25855;BME280;13680;49.936;11.344;2022-09-09T12:45:21;96313.78;;;28.03;31.50
25855;BME280;13680;49.936;11.344;2022-09-09T12:50:17;96306.28;;;28.93;30.29
25855;BME280;13680;49.936;11.344;2022-09-09T12:52:44;96300.13;;;29.18;29.62
25855;BME280;13680;49.936;11.344;2022-09-09T12:55:20;96309.31;;;28.09;31.37
25855;BME280;13680;49.936;11.344;2022-09-09T12:57:48;96313.41;;;27.37;32.28
25855;BME280;13680;49.936;11.344;2022-09-09T13:00:22;96298.81;;;28.20;31.02
25855;BME280;13680;49.936;11.344;2022-09-09T13:02:56;96338.44;;;26.75;33.79
25855;BME280;13680;49.936;11.344;2022-09-09T13:05:28;96351.88;;;26.73;34.09
25855;BME280;13680;49.936;11.344;2022-09-09T13:08:08;96334.63;;;25.23;36.59
25855;BME280;13680;49.936;11.344;2022-09-09T13:10:46;96339.94;;;25.87;36.60
25855;BME280;13680;49.936;11.344;2022-09-09T13:13:25;96331.06;;;26.06;36.60
25855;BME280;13680;49.936;11.344;2022-09-09T13:15:52;96327.22;;;26.58;35.15
25855;BME280;13680;49.936;11.344;2022-09-09T13:18:24;96338.84;;;27.01;34.61
25855;BME280;13680;49.936;11.344;2022-09-09T13:20:52;96319.22;;;26.68;34.96
25855;BME280;13680;49.936;11.344;2022-09-09T13:23:19;96333.53;;;26.59;34.75
25855;BME280;13680;49.936;11.344;2022-09-09T13:26:00;96333.31;;;27.72;35.54
25855;BME280;13680;49.936;11.344;2022-09-09T13:28:28;96337.66;;;28.70;31.85
25855;BME280;13680;49.936;11.344;2022-09-09T13:31:02;96343.56;;;27.51;33.13
25855;BME280;13680;49.936;11.344;2022-09-09T13:33:33;96344.28;;;27.75;31.37
25855;BME280;13680;49.936;11.344;2022-09-09T13:36:03;96341.44;;;26.84;33.18
25855;BME280;13680;49.936;11.344;2022-09-09T13:38:32;96347.34;;;26.28;33.83
25855;BME280;13680;49.936;11.344;2022-09-09T13:41:00;96345.63;;;26.07;34.79
25855;BME280;13680;49.936;11.344;2022-09-09T13:43:43;96361.94;;;25.90;34.86
25855;BME280;13680;49.936;11.344;2022-09-09T13:48:57;96369.06;;;24.93;36.24
25855;BME280;13680;49.936;11.344;2022-09-09T13:51:33;96374.84;;;24.43;37.13
25855;BME280;13680;49.936;11.344;2022-09-09T13:53:59;96369.53;;;23.96;38.51
25855;BME280;13680;49.936;11.344;2022-09-09T13:56:25;96382.13;;;23.53;38.80
25855;BME280;13680;49.936;11.344;2022-09-09T13:58:51;96371.19;;;23.43;39.35
25855;BME280;13680;49.936;11.344;2022-09-09T14:01:16;96361.75;;;23.51;39.95
25855;BME280;13680;49.936;11.344;2022-09-09T14:03:41;96362.94;;;23.50;39.68
25855;BME280;13680;49.936;11.344;2022-09-09T14:06:09;96353.13;;;23.70;39.75
25855;BME280;13680;49.936;11.344;2022-09-09T14:08:35;96356.22;;;23.73;39.66
25855;BME280;13680;49.936;11.344;2022-09-09T14:11:05;96350.34;;;23.92;39.08
25855;BME280;13680;49.936;11.344;2022-09-09T14:13:31;96351.19;;;22.88;41.34
25855;BME280;13680;49.936;11.344;2022-09-09T14:15:57;96346.38;;;24.78;39.56
25855;BME280;13680;49.936;11.344;2022-09-09T14:18:22;96338.94;;;25.24;38.34
25855;BME280;13680;49.936;11.344;2022-09-09T14:20:48;96326.94;;;25.87;36.59
25855;BME280;13680;49.936;11.344;2022-09-09T14:23:15;96319.16;;;26.71;36.82
25855;BME280;13680;49.936;11.344;2022-09-09T14:25:42;96313.53;;;27.93;34.24
25855;BME280;13680;49.936;11.344;2022-09-09T14:28:10;96327.66;;;27.99;32.70
25855;BME280;13680;49.936;11.344;2022-09-09T14:30:40;96327.19;;;28.41;31.35
25855;BME280;13680;49.936;11.344;2022-09-09T14:33:06;96324.56;;;28.17;31.46
25855;BME280;13680;49.936;11.344;2022-09-09T14:35:32;96320.19;;;29.06;31.08
25855;BME280;13680;49.936;11.344;2022-09-09T14:37:58;96325.50;;;29.00;31.09
25855;BME280;13680;49.936;11.344;2022-09-09T14:40:24;96310.50;;;30.06;29.51
25855;BME280;13680;49.936;11.344;2022-09-09T14:42:49;96306.47;;;30.75;29.03
25855;BME280;13680;49.936;11.344;2022-09-09T14:45:14;96317.19;;;30.22;29.31
25855;BME280;13680;49.936;11.344;2022-09-09T14:47:40;96322.09;;;29.42;29.74
25855;BME280;13680;49.936;11.344;2022-09-09T14:50:05;96324.53;;;28.90;31.81
25855;BME280;13680;49.936;11.344;2022-09-09T14:52:31;96324.97;;;28.52;31.90